ENKR/KKN METAR and TAF weather

Enter ICAO airport designator
Station Type Date Time Source
ENKR METAR 2020/08/11 18:50 UTC NOAA

ENKR 111850Z VRB01KT 9999 FEW023 SCT028 BKN037 10/07 Q1024 RMK WIND 731FT 13003KT


Station Type Date Time Source
ENKR Decoded METAR 2020/08/11 18:50 UTC NOAA

Kirkenes Lufthavn, Norway (ENKR) 69-44N 029-54E 91M
Aug 11, 2020 - 02:50 PM EDT / 2020.08.11 1850 UTC
Wind: Variable at 1 MPH (1 KT):0
Visibility: greater than 7 mile(s):0
Sky conditions: mostly cloudy
Temperature: 50 F (10 C)
Dew Point: 44 F (7 C)
Relative Humidity: 81%
Pressure (altimeter): 30.24 in. Hg (1024 hPa)
ob: ENKR 111850Z VRB01KT 9999 FEW023 SCT028 BKN037 10/07 Q1024 RMK WIND 731FT 13003KT
cycle: 19

Station Type Date Time Source
ENKR TAF 2017/08/31 21:36 UTC NOAA

TAF TAF ENKR 312300Z 3121/0109 29005KT 9999 FEW020 SCT040

Example: see airport list